<?xml version="1.0" encoding="UTF-8" standalone="no" ?>
<gpx xmlns="http://www.topografix.com/GPX/1/1" xmlns:xsi="http://www.w3.org/2001/XMLSchema-instance" xsi:schemaLocation="http://www.topografix.com/GPX/1/1 http://www.topografix.com/GPX/1/1/gpx.xsd" version="1.1" creator="VisuGPX - https://www.visugpx.com">
  <metadata>
    <name>Le Temple</name>
  </metadata>
  <trk>
    <name><![CDATA[14677905-Nordique le Temple]]></name>
    <trkseg>
      <trkpt lat="46.92867" lon="-0.81557">
        <ele>219</ele>
        <time>2022-09-14T17:26:02Z</time>
      </trkpt>
      <trkpt lat="46.92846" lon="-0.81519">
        <ele>219</ele>
        <time>2022-09-14T17:26:29Z</time>
      </trkpt>
      <trkpt lat="46.92846" lon="-0.81504">
        <ele>219</ele>
        <time>2022-09-14T17:26:37Z</time>
      </trkpt>
      <trkpt lat="46.9285" lon="-0.81497">
        <ele>219</ele>
        <time>2022-09-14T17:26:42Z</time>
      </trkpt>
      <trkpt lat="46.9284" lon="-0.81462">
        <ele>218</ele>
        <time>2022-09-14T17:27:03Z</time>
      </trkpt>
      <trkpt lat="46.92832" lon="-0.81422">
        <ele>218</ele>
        <time>2022-09-14T17:27:25Z</time>
      </trkpt>
      <trkpt lat="46.92826" lon="-0.81416">
        <ele>218</ele>
        <time>2022-09-14T17:27:31Z</time>
      </trkpt>
      <trkpt lat="46.9281" lon="-0.81352">
        <ele>220</ele>
        <time>2022-09-14T17:28:09Z</time>
      </trkpt>
      <trkpt lat="46.92801" lon="-0.8135">
        <ele>220</ele>
        <time>2022-09-14T17:28:16Z</time>
      </trkpt>
      <trkpt lat="46.92764" lon="-0.81146">
        <ele>222</ele>
        <time>2022-09-14T17:30:11Z</time>
      </trkpt>
      <trkpt lat="46.92757" lon="-0.81089">
        <ele>221</ele>
        <time>2022-09-14T17:30:43Z</time>
      </trkpt>
      <trkpt lat="46.92756" lon="-0.81076">
        <ele>221</ele>
        <time>2022-09-14T17:30:50Z</time>
      </trkpt>
      <trkpt lat="46.92774" lon="-0.81071">
        <ele>221</ele>
        <time>2022-09-14T17:31:05Z</time>
      </trkpt>
      <trkpt lat="46.92775" lon="-0.81049">
        <ele>221</ele>
        <time>2022-09-14T17:31:17Z</time>
      </trkpt>
      <trkpt lat="46.92827" lon="-0.81032">
        <ele>221</ele>
        <time>2022-09-14T17:31:59Z</time>
      </trkpt>
      <trkpt lat="46.92817" lon="-0.80953">
        <ele>221</ele>
        <time>2022-09-14T17:32:43Z</time>
      </trkpt>
      <trkpt lat="46.92796" lon="-0.8019">
        <ele>213</ele>
        <time>2022-09-14T17:39:41Z</time>
      </trkpt>
      <trkpt lat="46.92875" lon="-0.80169">
        <ele>211</ele>
        <time>2022-09-14T17:40:45Z</time>
      </trkpt>
      <trkpt lat="46.93117" lon="-0.80057">
        <ele>205</ele>
        <time>2022-09-14T17:44:08Z</time>
      </trkpt>
      <trkpt lat="46.93223" lon="-0.80055">
        <ele>199</ele>
        <time>2022-09-14T17:45:33Z</time>
      </trkpt>
      <trkpt lat="46.93244" lon="-0.79977">
        <ele>198</ele>
        <time>2022-09-14T17:46:19Z</time>
      </trkpt>
      <trkpt lat="46.93342" lon="-0.79866">
        <ele>196</ele>
        <time>2022-09-14T17:47:58Z</time>
      </trkpt>
      <trkpt lat="46.9339" lon="-0.79759">
        <ele>188</ele>
        <time>2022-09-14T17:49:08Z</time>
      </trkpt>
      <trkpt lat="46.9372" lon="-0.79784">
        <ele>160</ele>
        <time>2022-09-14T17:53:33Z</time>
      </trkpt>
      <trkpt lat="46.93805" lon="-0.79764">
        <ele>160</ele>
        <time>2022-09-14T17:54:42Z</time>
      </trkpt>
      <trkpt lat="46.93821" lon="-0.79941">
        <ele>155</ele>
        <time>2022-09-14T17:56:19Z</time>
      </trkpt>
      <trkpt lat="46.9391" lon="-0.80156">
        <ele>151</ele>
        <time>2022-09-14T17:58:37Z</time>
      </trkpt>
      <trkpt lat="46.93998" lon="-0.80317">
        <ele>148</ele>
        <time>2022-09-14T18:00:30Z</time>
      </trkpt>
      <trkpt lat="46.94059" lon="-0.804">
        <ele>145</ele>
        <time>2022-09-14T18:01:36Z</time>
      </trkpt>
      <trkpt lat="46.94064" lon="-0.80427">
        <ele>145</ele>
        <time>2022-09-14T18:01:52Z</time>
      </trkpt>
      <trkpt lat="46.94168" lon="-0.80474">
        <ele>143</ele>
        <time>2022-09-14T18:03:19Z</time>
      </trkpt>
      <trkpt lat="46.94581" lon="-0.80755">
        <ele>129</ele>
        <time>2022-09-14T18:09:23Z</time>
      </trkpt>
      <trkpt lat="46.94852" lon="-0.80786">
        <ele>130</ele>
        <time>2022-09-14T18:13:01Z</time>
      </trkpt>
      <trkpt lat="46.94901" lon="-0.80916">
        <ele>126</ele>
        <time>2022-09-14T18:14:22Z</time>
      </trkpt>
      <trkpt lat="46.94916" lon="-0.81006">
        <ele>125</ele>
        <time>2022-09-14T18:15:13Z</time>
      </trkpt>
      <trkpt lat="46.94904" lon="-0.81096">
        <ele>127</ele>
        <time>2022-09-14T18:16:03Z</time>
      </trkpt>
      <trkpt lat="46.9489" lon="-0.81154">
        <ele>129</ele>
        <time>2022-09-14T18:16:37Z</time>
      </trkpt>
      <trkpt lat="46.94847" lon="-0.81258">
        <ele>131</ele>
        <time>2022-09-14T18:17:43Z</time>
      </trkpt>
      <trkpt lat="46.94837" lon="-0.81351">
        <ele>134</ele>
        <time>2022-09-14T18:18:34Z</time>
      </trkpt>
      <trkpt lat="46.94746" lon="-0.81453">
        <ele>137</ele>
        <time>2022-09-14T18:20:06Z</time>
      </trkpt>
      <trkpt lat="46.94677" lon="-0.81601">
        <ele>138</ele>
        <time>2022-09-14T18:21:44Z</time>
      </trkpt>
      <trkpt lat="46.94673" lon="-0.81636">
        <ele>138</ele>
        <time>2022-09-14T18:22:04Z</time>
      </trkpt>
      <trkpt lat="46.94688" lon="-0.81713">
        <ele>138</ele>
        <time>2022-09-14T18:22:47Z</time>
      </trkpt>
      <trkpt lat="46.94635" lon="-0.81753">
        <ele>139</ele>
        <time>2022-09-14T18:23:35Z</time>
      </trkpt>
      <trkpt lat="46.94576" lon="-0.81769">
        <ele>139</ele>
        <time>2022-09-14T18:24:23Z</time>
      </trkpt>
      <trkpt lat="46.94501" lon="-0.81839">
        <ele>140</ele>
        <time>2022-09-14T18:25:34Z</time>
      </trkpt>
      <trkpt lat="46.94415" lon="-0.81892">
        <ele>145</ele>
        <time>2022-09-14T18:26:49Z</time>
      </trkpt>
      <trkpt lat="46.94354" lon="-0.81933">
        <ele>158</ele>
        <time>2022-09-14T18:27:43Z</time>
      </trkpt>
      <trkpt lat="46.94354" lon="-0.81933">
        <ele>158</ele>
        <time>2022-09-14T18:27:43Z</time>
      </trkpt>
      <trkpt lat="46.94254" lon="-0.81919">
        <ele>167</ele>
        <time>2022-09-14T18:29:03Z</time>
      </trkpt>
      <trkpt lat="46.94201" lon="-0.81971">
        <ele>171</ele>
        <time>2022-09-14T18:29:54Z</time>
      </trkpt>
      <trkpt lat="46.94116" lon="-0.82011">
        <ele>178</ele>
        <time>2022-09-14T18:31:06Z</time>
      </trkpt>
      <trkpt lat="46.93987" lon="-0.82056">
        <ele>188</ele>
        <time>2022-09-14T18:32:52Z</time>
      </trkpt>
      <trkpt lat="46.93926" lon="-0.82098">
        <ele>191</ele>
        <time>2022-09-14T18:33:46Z</time>
      </trkpt>
      <trkpt lat="46.93796" lon="-0.82303">
        <ele>205</ele>
        <time>2022-09-14T18:36:19Z</time>
      </trkpt>
      <trkpt lat="46.93744" lon="-0.82435">
        <ele>213</ele>
        <time>2022-09-14T18:37:42Z</time>
      </trkpt>
      <trkpt lat="46.93704" lon="-0.82538">
        <ele>216</ele>
        <time>2022-09-14T18:38:47Z</time>
      </trkpt>
      <trkpt lat="46.93632" lon="-0.82646">
        <ele>217</ele>
        <time>2022-09-14T18:40:09Z</time>
      </trkpt>
      <trkpt lat="46.93573" lon="-0.82505">
        <ele>219</ele>
        <time>2022-09-14T18:41:40Z</time>
      </trkpt>
      <trkpt lat="46.93473" lon="-0.82377">
        <ele>218</ele>
        <time>2022-09-14T18:43:26Z</time>
      </trkpt>
      <trkpt lat="46.93398" lon="-0.82251">
        <ele>214</ele>
        <time>2022-09-14T18:44:58Z</time>
      </trkpt>
      <trkpt lat="46.93154" lon="-0.82401">
        <ele>209</ele>
        <time>2022-09-14T18:48:30Z</time>
      </trkpt>
      <trkpt lat="46.93137" lon="-0.82356">
        <ele>210</ele>
        <time>2022-09-14T18:48:58Z</time>
      </trkpt>
      <trkpt lat="46.9278" lon="-0.82592">
        <ele>210</ele>
        <time>2022-09-14T18:54:11Z</time>
      </trkpt>
      <trkpt lat="46.92748" lon="-0.82233">
        <ele>213</ele>
        <time>2022-09-14T18:57:29Z</time>
      </trkpt>
      <trkpt lat="46.92688" lon="-0.822">
        <ele>215</ele>
        <time>2022-09-14T18:58:21Z</time>
      </trkpt>
      <trkpt lat="46.92708" lon="-0.8207">
        <ele>214</ele>
        <time>2022-09-14T18:59:33Z</time>
      </trkpt>
      <trkpt lat="46.92746" lon="-0.81959">
        <ele>218</ele>
        <time>2022-09-14T19:00:41Z</time>
      </trkpt>
      <trkpt lat="46.9281" lon="-0.81834">
        <ele>218</ele>
        <time>2022-09-14T19:02:07Z</time>
      </trkpt>
      <trkpt lat="46.92846" lon="-0.81663">
        <ele>220</ele>
        <time>2022-09-14T19:03:45Z</time>
      </trkpt>
      <trkpt lat="46.92861" lon="-0.81646">
        <ele>220</ele>
        <time>2022-09-14T19:04:00Z</time>
      </trkpt>
      <trkpt lat="46.92861" lon="-0.81646">
        <ele>220</ele>
        <time>2022-09-14T19:04:00Z</time>
      </trkpt>
      <trkpt lat="46.9287" lon="-0.81627">
        <ele>220</ele>
        <time>2022-09-14T19:04:12Z</time>
      </trkpt>
      <trkpt lat="46.9285" lon="-0.81624">
        <ele>220</ele>
        <time>2022-09-14T19:04:28Z</time>
      </trkpt>
      <trkpt lat="46.92858" lon="-0.81615">
        <ele>220</ele>
        <time>2022-09-14T19:04:37Z</time>
      </trkpt>
      <trkpt lat="46.92867" lon="-0.81557">
        <ele>219</ele>
        <time>2022-09-14T19:05:09Z</time>
      </trkpt>
    </trkseg>
  </trk>
</gpx>